FLI471 EKBI-EKVG
Flight info
| Callsign | FLI471 |
|---|---|
| Flight time | 1h 49m |
| Altitude | 38000 |
| Route | RERPA DCT UNBUD DCT GUNPA/M076F380 DCT ROBUR |
| Aircraft | A20N/M-SDE2E3FGHIRWXY/LB1 |
Departure
| Time | 2026-04-28 14:11 |
|---|---|
| Airport | Billund Airport (EKBI) |
Arrival
| Time | 2026-04-28 16:00 |
|---|---|
| Airport | Vágar Airport (EKVG) |
| Time | Latitude | Longitude | Altitude | Speed | Heading |
|---|---|---|---|---|---|
| 2026-04-28 14:01 | 55.74538 | 9.14943 | 256 ft | 0 kts | 357° |
| 2026-04-28 14:02 | 55.74530 | 9.14944 | 256 ft | 2 kts | 356° |
| 2026-04-28 14:02 | 55.74515 | 9.14945 | 256 ft | 2 kts | 357° |
| 2026-04-28 14:02 | 55.74500 | 9.14946 | 256 ft | 2 kts | 356° |
| 2026-04-28 14:02 | 55.74485 | 9.14948 | 256 ft | 2 kts | 357° |
| 2026-04-28 14:03 | 55.74471 | 9.14954 | 256 ft | 2 kts | 328° |
| 2026-04-28 14:03 | 55.74459 | 9.14971 | 256 ft | 2 kts | 304° |
| 2026-04-28 14:03 | 55.74453 | 9.14996 | 256 ft | 2 kts | 279° |
| 2026-04-28 14:03 | 55.74454 | 9.15022 | 256 ft | 2 kts | 262° |
| 2026-04-28 14:04 | 55.74455 | 9.15049 | 256 ft | 2 kts | 268° |
| 2026-04-28 14:04 | 55.74455 | 9.15075 | 256 ft | 1 kts | 266° |
| 2026-04-28 14:04 | 55.74455 | 9.15077 | 256 ft | 0 kts | 266° |
| 2026-04-28 14:06 | 55.74455 | 9.15070 | 256 ft | 1 kts | 265° |
| 2026-04-28 14:06 | 55.74444 | 9.14995 | 256 ft | 8 kts | 233° |
| 2026-04-28 14:06 | 55.74384 | 9.14980 | 256 ft | 11 kts | 179° |
| 2026-04-28 14:06 | 55.74294 | 9.14979 | 256 ft | 13 kts | 201° |
| 2026-04-28 14:07 | 55.74268 | 9.14830 | 256 ft | 14 kts | 269° |
| 2026-04-28 14:07 | 55.74263 | 9.14646 | 256 ft | 15 kts | 266° |
| 2026-04-28 14:07 | 55.74256 | 9.14442 | 256 ft | 17 kts | 267° |
| 2026-04-28 14:07 | 55.74249 | 9.14221 | 256 ft | 18 kts | 267° |
| 2026-04-28 14:08 | 55.74242 | 9.13981 | 256 ft | 20 kts | 267° |
| 2026-04-28 14:08 | 55.74235 | 9.13730 | 256 ft | 20 kts | 268° |
| 2026-04-28 14:08 | 55.74223 | 9.13476 | 256 ft | 20 kts | 257° |
| 2026-04-28 14:08 | 55.74147 | 9.13290 | 256 ft | 18 kts | 210° |
| 2026-04-28 14:09 | 55.74030 | 9.13257 | 256 ft | 16 kts | 176° |
| 2026-04-28 14:09 | 55.73974 | 9.13333 | 256 ft | 11 kts | 91° |
| 2026-04-28 14:09 | 55.73978 | 9.13473 | 256 ft | 7 kts | 87° |
| 2026-04-28 14:09 | 55.73980 | 9.13520 | 256 ft | 0 kts | 87° |
| 2026-04-28 14:10 | 55.73980 | 9.13526 | 256 ft | 6 kts | 86° |
| 2026-04-28 14:11 | 55.73998 | 9.14105 | 256 ft | 86 kts | 87° |
| 2026-04-28 14:11 | 55.74043 | 9.15569 | 257 ft | 149 kts | 85° |
| 2026-04-28 14:11 | 55.74108 | 9.17509 | 734 ft | 160 kts | 81° |
| 2026-04-28 14:11 | 55.74251 | 9.19414 | 1458 ft | 160 kts | 62° |
| 2026-04-28 14:12 | 55.75035 | 9.20626 | 2148 ft | 161 kts | 15° |
| 2026-04-28 14:12 | 55.76198 | 9.20458 | 2644 ft | 184 kts | 341° |
| 2026-04-28 14:12 | 55.77391 | 9.19412 | 3140 ft | 206 kts | 335° |
| 2026-04-28 14:12 | 55.78731 | 9.18234 | 3709 ft | 226 kts | 336° |
| 2026-04-28 14:13 | 55.80209 | 9.16952 | 4348 ft | 245 kts | 336° |
| 2026-04-28 14:13 | 55.81768 | 9.15603 | 5084 ft | 258 kts | 336° |
| 2026-04-28 14:13 | 55.83365 | 9.14214 | 6057 ft | 261 kts | 336° |
| 2026-04-28 14:13 | 55.84978 | 9.12811 | 7078 ft | 263 kts | 336° |
| 2026-04-28 14:14 | 55.86606 | 9.11396 | 8079 ft | 265 kts | 336° |
| 2026-04-28 14:14 | 55.88240 | 9.09976 | 9074 ft | 266 kts | 336° |
| 2026-04-28 14:14 | 55.89897 | 9.08534 | 10026 ft | 268 kts | 336° |
| 2026-04-28 14:14 | 55.91570 | 9.07077 | 10935 ft | 271 kts | 336° |
| 2026-04-28 14:15 | 55.93272 | 9.05459 | 11493 ft | 287 kts | 331° |
| 2026-04-28 14:15 | 55.94940 | 9.03406 | 12112 ft | 300 kts | 324° |
| 2026-04-28 14:15 | 55.96539 | 9.00999 | 12979 ft | 304 kts | 321° |
| 2026-04-28 14:15 | 55.98129 | 8.98504 | 13794 ft | 308 kts | 321° |
| 2026-04-28 14:16 | 55.99733 | 8.95965 | 14622 ft | 311 kts | 321° |
| 2026-04-28 14:16 | 56.01340 | 8.93420 | 15423 ft | 314 kts | 321° |
| 2026-04-28 14:16 | 56.02970 | 8.90839 | 16168 ft | 318 kts | 322° |
| 2026-04-28 14:16 | 56.04621 | 8.88225 | 16920 ft | 321 kts | 322° |
| 2026-04-28 14:17 | 56.06286 | 8.85588 | 17639 ft | 325 kts | 322° |
| 2026-04-28 14:17 | 56.07982 | 8.82900 | 18332 ft | 329 kts | 322° |
| 2026-04-28 14:17 | 56.09692 | 8.80185 | 19038 ft | 333 kts | 322° |
| 2026-04-28 14:17 | 56.11419 | 8.77440 | 19732 ft | 336 kts | 322° |
| 2026-04-28 14:18 | 56.13173 | 8.74649 | 20395 ft | 340 kts | 323° |
| 2026-04-28 14:18 | 56.14939 | 8.71833 | 21067 ft | 344 kts | 323° |
| 2026-04-28 14:18 | 56.16721 | 8.68992 | 21726 ft | 347 kts | 323° |
| 2026-04-28 14:18 | 56.18538 | 8.66093 | 22378 ft | 350 kts | 324° |
| 2026-04-28 14:19 | 56.20339 | 8.63212 | 22987 ft | 354 kts | 324° |
| 2026-04-28 14:19 | 56.22193 | 8.60246 | 23585 ft | 357 kts | 324° |
| 2026-04-28 14:19 | 56.24026 | 8.57306 | 24173 ft | 360 kts | 325° |
| 2026-04-28 14:19 | 56.25900 | 8.54299 | 24761 ft | 363 kts | 325° |
| 2026-04-28 14:20 | 56.27787 | 8.51267 | 25312 ft | 366 kts | 325° |
| 2026-04-28 14:20 | 56.29669 | 8.48237 | 25887 ft | 368 kts | 326° |
| 2026-04-28 14:20 | 56.31580 | 8.45156 | 26441 ft | 370 kts | 326° |
| 2026-04-28 14:20 | 56.33493 | 8.42069 | 26937 ft | 373 kts | 326° |
| 2026-04-28 14:21 | 56.35420 | 8.38959 | 27452 ft | 375 kts | 326° |
| 2026-04-28 14:21 | 56.37339 | 8.35852 | 27940 ft | 377 kts | 326° |
| 2026-04-28 14:21 | 56.39284 | 8.32697 | 28424 ft | 379 kts | 326° |
| 2026-04-28 14:21 | 56.41250 | 8.29505 | 28863 ft | 382 kts | 326° |
| 2026-04-28 14:22 | 56.43226 | 8.26293 | 29292 ft | 385 kts | 326° |
| 2026-04-28 14:22 | 56.45200 | 8.23076 | 29698 ft | 387 kts | 326° |
| 2026-04-28 14:22 | 56.47197 | 8.19821 | 30125 ft | 389 kts | 326° |
| 2026-04-28 14:22 | 56.49201 | 8.16499 | 30547 ft | 392 kts | 326° |
| 2026-04-28 14:23 | 56.51184 | 8.13118 | 30935 ft | 395 kts | 325° |
| 2026-04-28 14:23 | 56.53182 | 8.09689 | 31287 ft | 398 kts | 325° |
| 2026-04-28 14:23 | 56.55187 | 8.06241 | 31658 ft | 400 kts | 325° |
| 2026-04-28 14:23 | 56.57170 | 8.02827 | 32114 ft | 399 kts | 325° |
| 2026-04-28 14:24 | 56.59173 | 7.99372 | 32640 ft | 396 kts | 325° |
| 2026-04-28 14:24 | 56.61150 | 7.95957 | 33149 ft | 393 kts | 324° |
| 2026-04-28 14:24 | 56.63122 | 7.92549 | 33615 ft | 391 kts | 324° |
| 2026-04-28 14:24 | 56.65065 | 7.89187 | 34040 ft | 389 kts | 324° |
| 2026-04-28 14:25 | 56.67011 | 7.85814 | 34455 ft | 388 kts | 324° |
| 2026-04-28 14:25 | 56.68956 | 7.82442 | 34855 ft | 386 kts | 324° |
| 2026-04-28 14:25 | 56.70869 | 7.79115 | 35187 ft | 385 kts | 324° |
| 2026-04-28 14:25 | 56.72808 | 7.75742 | 35481 ft | 384 kts | 324° |
| 2026-04-28 14:26 | 56.74681 | 7.72483 | 35726 ft | 384 kts | 324° |
| 2026-04-28 14:26 | 56.76388 | 7.69506 | 35948 ft | 385 kts | 324° |
| 2026-04-28 14:26 | 56.78359 | 7.66065 | 36216 ft | 384 kts | 324° |
| 2026-04-28 14:26 | 56.80062 | 7.63085 | 36461 ft | 383 kts | 324° |
| 2026-04-28 14:27 | 56.81977 | 7.59730 | 36728 ft | 383 kts | 324° |
| 2026-04-28 14:27 | 56.83907 | 7.56343 | 36999 ft | 383 kts | 324° |
| 2026-04-28 14:27 | 56.85807 | 7.53002 | 37203 ft | 385 kts | 324° |
| 2026-04-28 14:27 | 56.87727 | 7.49626 | 37420 ft | 386 kts | 323° |
| 2026-04-28 14:28 | 56.89663 | 7.46217 | 37619 ft | 388 kts | 323° |
| 2026-04-28 14:28 | 56.91607 | 7.42786 | 37812 ft | 389 kts | 323° |
| 2026-04-28 14:28 | 56.93552 | 7.39347 | 37999 ft | 390 kts | 323° |
| 2026-04-28 14:28 | 56.95497 | 7.35902 | 38182 ft | 391 kts | 323° |
| 2026-04-28 14:29 | 56.97424 | 7.32484 | 38349 ft | 391 kts | 323° |
| 2026-04-28 14:29 | 56.99387 | 7.28995 | 38456 ft | 393 kts | 322° |
| 2026-04-28 14:29 | 57.03304 | 7.22023 | 38461 ft | 395 kts | 322° |
| 2026-04-28 14:30 | 57.07220 | 7.15027 | 38453 ft | 395 kts | 322° |
| 2026-04-28 14:30 | 57.11137 | 7.08011 | 38456 ft | 394 kts | 322° |
| 2026-04-28 14:31 | 57.15039 | 7.01002 | 38450 ft | 394 kts | 322° |
| 2026-04-28 14:31 | 57.18952 | 6.93946 | 38433 ft | 394 kts | 322° |
| 2026-04-28 14:32 | 57.22852 | 6.86894 | 38441 ft | 394 kts | 322° |
| 2026-04-28 14:32 | 57.26736 | 6.79847 | 38441 ft | 395 kts | 322° |
| 2026-04-28 14:33 | 57.30642 | 6.72744 | 38446 ft | 394 kts | 322° |
| 2026-04-28 14:33 | 57.34525 | 6.65655 | 38444 ft | 395 kts | 322° |
| 2026-04-28 14:34 | 57.40340 | 6.55000 | 38456 ft | 394 kts | 322° |
| 2026-04-28 14:35 | 57.44217 | 6.47868 | 38446 ft | 395 kts | 322° |
| 2026-04-28 14:35 | 57.48113 | 6.40681 | 38455 ft | 395 kts | 322° |
| 2026-04-28 14:36 | 57.51980 | 6.33517 | 38454 ft | 395 kts | 322° |
| 2026-04-28 14:36 | 57.55848 | 6.26334 | 38457 ft | 395 kts | 321° |
| 2026-04-28 14:37 | 57.59703 | 6.19154 | 38447 ft | 395 kts | 321° |
| 2026-04-28 14:37 | 57.63576 | 6.11913 | 38453 ft | 395 kts | 321° |
| 2026-04-28 14:38 | 57.67444 | 6.04661 | 38461 ft | 395 kts | 321° |
| 2026-04-28 14:38 | 57.71291 | 5.97424 | 38459 ft | 394 kts | 321° |
| 2026-04-28 14:39 | 57.75118 | 5.90201 | 38457 ft | 394 kts | 321° |
| 2026-04-28 14:39 | 57.78960 | 5.82927 | 38457 ft | 394 kts | 321° |
| 2026-04-28 14:40 | 57.82807 | 5.75620 | 38453 ft | 394 kts | 321° |
| 2026-04-28 14:40 | 57.86635 | 5.68327 | 38456 ft | 394 kts | 321° |
| 2026-04-28 14:41 | 57.90468 | 5.60997 | 38453 ft | 394 kts | 322° |
| 2026-04-28 14:41 | 57.94266 | 5.53711 | 38443 ft | 393 kts | 322° |
| 2026-04-28 14:42 | 57.98076 | 5.46382 | 38446 ft | 393 kts | 322° |
| 2026-04-28 14:42 | 58.01873 | 5.39050 | 38448 ft | 393 kts | 321° |
| 2026-04-28 14:43 | 58.05695 | 5.31646 | 38449 ft | 394 kts | 321° |
| 2026-04-28 14:43 | 58.09484 | 5.24278 | 38453 ft | 393 kts | 321° |
| 2026-04-28 14:44 | 58.13329 | 5.17023 | 38458 ft | 391 kts | 324° |
| 2026-04-28 14:44 | 58.17416 | 5.10344 | 38454 ft | 389 kts | 326° |
| 2026-04-28 14:45 | 58.21532 | 5.03744 | 38451 ft | 389 kts | 326° |
| 2026-04-28 14:45 | 58.25621 | 4.97157 | 38457 ft | 389 kts | 326° |
| 2026-04-28 14:46 | 58.29723 | 4.90525 | 38462 ft | 389 kts | 326° |
| 2026-04-28 14:46 | 58.33825 | 4.83869 | 38459 ft | 389 kts | 326° |
| 2026-04-28 14:47 | 58.37927 | 4.77186 | 38463 ft | 389 kts | 326° |
| 2026-04-28 14:47 | 58.42017 | 4.70505 | 38470 ft | 389 kts | 326° |
| 2026-04-28 14:48 | 58.46104 | 4.63810 | 38471 ft | 388 kts | 326° |
| 2026-04-28 14:48 | 58.50179 | 4.57109 | 38474 ft | 388 kts | 326° |
| 2026-04-28 14:49 | 58.54261 | 4.50375 | 38481 ft | 389 kts | 326° |
| 2026-04-28 14:49 | 58.58320 | 4.43660 | 38480 ft | 388 kts | 326° |
| 2026-04-28 14:50 | 58.62381 | 4.36919 | 38475 ft | 387 kts | 326° |
| 2026-04-28 14:50 | 58.66419 | 4.30191 | 38476 ft | 389 kts | 325° |
| 2026-04-28 14:51 | 58.70496 | 4.23384 | 38470 ft | 388 kts | 325° |
| 2026-04-28 14:51 | 58.74543 | 4.16603 | 38470 ft | 388 kts | 325° |
| 2026-04-28 14:52 | 58.78594 | 4.09792 | 38479 ft | 387 kts | 325° |
| 2026-04-28 14:52 | 58.82619 | 4.03003 | 38479 ft | 387 kts | 325° |
| 2026-04-28 14:53 | 58.86652 | 3.96182 | 38476 ft | 388 kts | 325° |
| 2026-04-28 14:53 | 58.90707 | 3.89295 | 38477 ft | 388 kts | 325° |
| 2026-04-28 14:54 | 58.94717 | 3.82465 | 38479 ft | 387 kts | 325° |
| 2026-04-28 14:54 | 58.98745 | 3.75584 | 38479 ft | 387 kts | 325° |
| 2026-04-28 14:55 | 59.02764 | 3.68695 | 38481 ft | 387 kts | 325° |
| 2026-04-28 14:55 | 59.06777 | 3.61795 | 38478 ft | 386 kts | 325° |
| 2026-04-28 14:56 | 59.10780 | 3.54889 | 38480 ft | 386 kts | 325° |
| 2026-04-28 14:56 | 59.14778 | 3.47965 | 38482 ft | 387 kts | 325° |
| 2026-04-28 14:57 | 59.18770 | 3.41032 | 38483 ft | 387 kts | 325° |
| 2026-04-28 14:57 | 59.22789 | 3.34031 | 38485 ft | 387 kts | 324° |
| 2026-04-28 14:58 | 59.26784 | 3.27048 | 38487 ft | 387 kts | 324° |
| 2026-04-28 14:58 | 59.30766 | 3.20065 | 38488 ft | 387 kts | 324° |
| 2026-04-28 14:59 | 59.34731 | 3.13086 | 38491 ft | 386 kts | 324° |
| 2026-04-28 14:59 | 59.38715 | 3.06052 | 38485 ft | 386 kts | 324° |
| 2026-04-28 15:00 | 59.42674 | 2.99042 | 38478 ft | 387 kts | 324° |
| 2026-04-28 15:00 | 59.46655 | 2.91969 | 38465 ft | 387 kts | 324° |
| 2026-04-28 15:01 | 59.50622 | 2.84896 | 38465 ft | 385 kts | 324° |
| 2026-04-28 15:01 | 59.54580 | 2.77815 | 38471 ft | 385 kts | 324° |
| 2026-04-28 15:02 | 59.58525 | 2.70736 | 38473 ft | 386 kts | 324° |
| 2026-04-28 15:02 | 59.62479 | 2.63619 | 38474 ft | 386 kts | 323° |
| 2026-04-28 15:03 | 59.66410 | 2.56515 | 38482 ft | 386 kts | 323° |
| 2026-04-28 15:03 | 59.70361 | 2.49355 | 38488 ft | 386 kts | 323° |
| 2026-04-28 15:04 | 59.74278 | 2.42228 | 38487 ft | 386 kts | 323° |
| 2026-04-28 15:04 | 59.78210 | 2.35054 | 38493 ft | 386 kts | 323° |
| 2026-04-28 15:05 | 59.82155 | 2.27826 | 38486 ft | 386 kts | 322° |
| 2026-04-28 15:05 | 59.86063 | 2.20647 | 38493 ft | 386 kts | 322° |
| 2026-04-28 15:06 | 59.89976 | 2.13437 | 38489 ft | 385 kts | 322° |
| 2026-04-28 15:06 | 59.93911 | 2.06159 | 38498 ft | 386 kts | 322° |
| 2026-04-28 15:07 | 59.97807 | 1.98929 | 38490 ft | 385 kts | 322° |
| 2026-04-28 15:07 | 60.01729 | 1.91627 | 38477 ft | 386 kts | 322° |
| 2026-04-28 15:08 | 60.05638 | 1.84322 | 38473 ft | 387 kts | 322° |
| 2026-04-28 15:08 | 60.09528 | 1.77025 | 38475 ft | 387 kts | 322° |
| 2026-04-28 15:09 | 60.13433 | 1.69683 | 38473 ft | 387 kts | 322° |
| 2026-04-28 15:09 | 60.17351 | 1.62289 | 38466 ft | 386 kts | 322° |
| 2026-04-28 15:10 | 60.21241 | 1.54920 | 38468 ft | 386 kts | 322° |
| 2026-04-28 15:10 | 60.25113 | 1.47561 | 38471 ft | 387 kts | 321° |
| 2026-04-28 15:11 | 60.29011 | 1.40124 | 38473 ft | 387 kts | 321° |
| 2026-04-28 15:11 | 60.32911 | 1.32662 | 38472 ft | 387 kts | 321° |
| 2026-04-28 15:12 | 60.36790 | 1.25211 | 38470 ft | 388 kts | 320° |
| 2026-04-28 15:12 | 60.40660 | 1.17754 | 38468 ft | 388 kts | 320° |
| 2026-04-28 15:13 | 60.44555 | 1.10224 | 38466 ft | 389 kts | 320° |
| 2026-04-28 15:13 | 60.48455 | 1.02656 | 38468 ft | 389 kts | 320° |
| 2026-04-28 15:14 | 60.52346 | 0.95077 | 38467 ft | 389 kts | 320° |
| 2026-04-28 15:14 | 60.56226 | 0.87492 | 38464 ft | 388 kts | 320° |
| 2026-04-28 15:15 | 60.60090 | 0.79916 | 38664 ft | 388 kts | 320° |
| 2026-04-28 15:15 | 60.63956 | 0.72309 | 38490 ft | 388 kts | 320° |
| 2026-04-28 15:16 | 60.67793 | 0.64730 | 38462 ft | 388 kts | 320° |
| 2026-04-28 15:16 | 60.71670 | 0.57044 | 38450 ft | 389 kts | 320° |
| 2026-04-28 15:17 | 60.75516 | 0.49393 | 38446 ft | 388 kts | 319° |
| 2026-04-28 15:17 | 60.79359 | 0.41721 | 38449 ft | 389 kts | 319° |
| 2026-04-28 15:18 | 60.83235 | 0.33956 | 38448 ft | 390 kts | 318° |
| 2026-04-28 15:18 | 60.87072 | 0.26240 | 38449 ft | 390 kts | 318° |
| 2026-04-28 15:19 | 60.90935 | 0.18438 | 38443 ft | 390 kts | 318° |
| 2026-04-28 15:19 | 60.94756 | 0.10613 | 38447 ft | 391 kts | 316° |
| 2026-04-28 15:20 | 60.98159 | 0.01898 | 38443 ft | 395 kts | 308° |
| 2026-04-28 15:20 | 61.00943 | -0.07924 | 38439 ft | 400 kts | 300° |
| 2026-04-28 15:21 | 61.02996 | -0.18481 | 38434 ft | 403 kts | 293° |
| 2026-04-28 15:21 | 61.04765 | -0.29433 | 38442 ft | 404 kts | 292° |
| 2026-04-28 15:22 | 61.06519 | -0.40411 | 38436 ft | 404 kts | 292° |
| 2026-04-28 15:22 | 61.08265 | -0.51400 | 38430 ft | 404 kts | 292° |
| 2026-04-28 15:23 | 61.09989 | -0.62313 | 38433 ft | 403 kts | 292° |
| 2026-04-28 15:23 | 61.11716 | -0.73299 | 38436 ft | 404 kts | 291° |
| 2026-04-28 15:24 | 61.13443 | -0.84349 | 38432 ft | 404 kts | 291° |
| 2026-04-28 15:24 | 61.15153 | -0.95361 | 38428 ft | 404 kts | 291° |
| 2026-04-28 15:25 | 61.16853 | -1.06381 | 38424 ft | 405 kts | 291° |
| 2026-04-28 15:25 | 61.18544 | -1.17411 | 38426 ft | 405 kts | 291° |
| 2026-04-28 15:26 | 61.20235 | -1.28514 | 38425 ft | 405 kts | 290° |
| 2026-04-28 15:26 | 61.21909 | -1.39571 | 38427 ft | 404 kts | 290° |
| 2026-04-28 15:27 | 61.23585 | -1.50717 | 38420 ft | 405 kts | 290° |
| 2026-04-28 15:27 | 61.25238 | -1.61777 | 38416 ft | 404 kts | 290° |
| 2026-04-28 15:28 | 61.26885 | -1.72884 | 38411 ft | 404 kts | 289° |
| 2026-04-28 15:28 | 61.28518 | -1.83962 | 38406 ft | 403 kts | 289° |
| 2026-04-28 15:29 | 61.30156 | -1.95135 | 38403 ft | 404 kts | 289° |
| 2026-04-28 15:29 | 61.31773 | -2.06247 | 38400 ft | 405 kts | 289° |
| 2026-04-28 15:30 | 61.33386 | -2.17402 | 38397 ft | 405 kts | 288° |
| 2026-04-28 15:30 | 61.34996 | -2.28622 | 38397 ft | 405 kts | 288° |
| 2026-04-28 15:31 | 61.36591 | -2.39805 | 38398 ft | 405 kts | 288° |
| 2026-04-28 15:31 | 61.38181 | -2.51026 | 38394 ft | 405 kts | 288° |
| 2026-04-28 15:32 | 61.39767 | -2.62303 | 38395 ft | 405 kts | 288° |
| 2026-04-28 15:32 | 61.41335 | -2.73528 | 38394 ft | 405 kts | 287° |
| 2026-04-28 15:33 | 61.42890 | -2.84741 | 38396 ft | 404 kts | 287° |
| 2026-04-28 15:33 | 61.44437 | -2.95964 | 38397 ft | 404 kts | 287° |
| 2026-04-28 15:34 | 61.45981 | -3.07243 | 37949 ft | 404 kts | 287° |
| 2026-04-28 15:34 | 61.46737 | -3.12801 | 37460 ft | 401 kts | 287° |
| 2026-04-28 15:34 | 61.47492 | -3.18374 | 36913 ft | 399 kts | 287° |
| 2026-04-28 15:34 | 61.48245 | -3.23948 | 36320 ft | 398 kts | 287° |
| 2026-04-28 15:35 | 61.48986 | -3.29453 | 35694 ft | 398 kts | 287° |
| 2026-04-28 15:35 | 61.50475 | -3.40566 | 34502 ft | 397 kts | 287° |
| 2026-04-28 15:35 | 61.51208 | -3.46060 | 33899 ft | 397 kts | 287° |
| 2026-04-28 15:36 | 61.51941 | -3.51581 | 33279 ft | 398 kts | 287° |
| 2026-04-28 15:36 | 61.52676 | -3.57129 | 32619 ft | 399 kts | 287° |
| 2026-04-28 15:36 | 61.53418 | -3.62758 | 31939 ft | 400 kts | 287° |
| 2026-04-28 15:36 | 61.54151 | -3.68348 | 31276 ft | 401 kts | 286° |
| 2026-04-28 15:37 | 61.54877 | -3.73891 | 30820 ft | 397 kts | 285° |
| 2026-04-28 15:37 | 61.55603 | -3.79461 | 30355 ft | 394 kts | 285° |
| 2026-04-28 15:37 | 61.56319 | -3.84959 | 29894 ft | 391 kts | 285° |
| 2026-04-28 15:37 | 61.56791 | -3.88597 | 29593 ft | 388 kts | 285° |
| 2026-04-28 15:38 | 61.57715 | -3.95748 | 29018 ft | 383 kts | 285° |
| 2026-04-28 15:38 | 61.58408 | -4.01138 | 28582 ft | 380 kts | 285° |
| 2026-04-28 15:38 | 61.59090 | -4.06461 | 28161 ft | 376 kts | 285° |
| 2026-04-28 15:38 | 61.59762 | -4.11724 | 27744 ft | 373 kts | 285° |
| 2026-04-28 15:39 | 61.60423 | -4.16920 | 27321 ft | 370 kts | 285° |
| 2026-04-28 15:39 | 61.61072 | -4.22039 | 26891 ft | 367 kts | 285° |
| 2026-04-28 15:39 | 61.61722 | -4.27179 | 26456 ft | 364 kts | 285° |
| 2026-04-28 15:39 | 61.62369 | -4.32313 | 26022 ft | 361 kts | 285° |
| 2026-04-28 15:40 | 61.63004 | -4.37367 | 25585 ft | 359 kts | 285° |
| 2026-04-28 15:40 | 61.63636 | -4.42408 | 25104 ft | 358 kts | 285° |
| 2026-04-28 15:40 | 61.64265 | -4.47456 | 24660 ft | 356 kts | 285° |
| 2026-04-28 15:40 | 61.64887 | -4.52454 | 24210 ft | 354 kts | 285° |
| 2026-04-28 15:41 | 61.65496 | -4.57371 | 23776 ft | 353 kts | 285° |
| 2026-04-28 15:41 | 61.66111 | -4.62349 | 23343 ft | 350 kts | 285° |
| 2026-04-28 15:41 | 61.66720 | -4.67295 | 22916 ft | 348 kts | 284° |
| 2026-04-28 15:41 | 61.67322 | -4.72201 | 22488 ft | 347 kts | 284° |
| 2026-04-28 15:42 | 61.67915 | -4.77049 | 22061 ft | 345 kts | 284° |
| 2026-04-28 15:42 | 61.68514 | -4.81954 | 21638 ft | 343 kts | 283° |
| 2026-04-28 15:42 | 61.69094 | -4.86725 | 21219 ft | 341 kts | 283° |
| 2026-04-28 15:42 | 61.69681 | -4.91568 | 20785 ft | 339 kts | 283° |
| 2026-04-28 15:43 | 61.70253 | -4.96312 | 20363 ft | 337 kts | 283° |
| 2026-04-28 15:43 | 61.70828 | -5.01083 | 19930 ft | 336 kts | 283° |
| 2026-04-28 15:43 | 61.71398 | -5.05841 | 19501 ft | 334 kts | 282° |
| 2026-04-28 15:43 | 61.71959 | -5.10537 | 19086 ft | 331 kts | 282° |
| 2026-04-28 15:44 | 61.72515 | -5.15209 | 18672 ft | 329 kts | 282° |
| 2026-04-28 15:44 | 61.73065 | -5.19846 | 18251 ft | 327 kts | 282° |
| 2026-04-28 15:44 | 61.73611 | -5.24452 | 17836 ft | 325 kts | 282° |
| 2026-04-28 15:44 | 61.74154 | -5.29056 | 17414 ft | 323 kts | 282° |
| 2026-04-28 15:45 | 61.74683 | -5.33563 | 17003 ft | 321 kts | 282° |
| 2026-04-28 15:45 | 61.75221 | -5.38142 | 16592 ft | 318 kts | 282° |
| 2026-04-28 15:45 | 61.75743 | -5.42613 | 16183 ft | 316 kts | 282° |
| 2026-04-28 15:45 | 61.76271 | -5.47150 | 15764 ft | 314 kts | 282° |
| 2026-04-28 15:46 | 61.76783 | -5.51565 | 15350 ft | 313 kts | 282° |
| 2026-04-28 15:46 | 61.77297 | -5.56005 | 14928 ft | 311 kts | 282° |
| 2026-04-28 15:46 | 61.77809 | -5.60442 | 14518 ft | 309 kts | 282° |
| 2026-04-28 15:46 | 61.78308 | -5.64780 | 14113 ft | 308 kts | 282° |
| 2026-04-28 15:47 | 61.78814 | -5.69198 | 13697 ft | 306 kts | 281° |
| 2026-04-28 15:47 | 61.79304 | -5.73490 | 13292 ft | 305 kts | 281° |
| 2026-04-28 15:47 | 61.79798 | -5.77827 | 12893 ft | 303 kts | 281° |
| 2026-04-28 15:47 | 61.80291 | -5.82156 | 12497 ft | 301 kts | 281° |
| 2026-04-28 15:48 | 61.80773 | -5.86412 | 12106 ft | 299 kts | 281° |
| 2026-04-28 15:48 | 61.81254 | -5.90669 | 11720 ft | 297 kts | 281° |
| 2026-04-28 15:48 | 61.81731 | -5.94902 | 11328 ft | 295 kts | 281° |
| 2026-04-28 15:48 | 61.82197 | -5.99061 | 10939 ft | 294 kts | 281° |
| 2026-04-28 15:49 | 61.82663 | -6.03220 | 10612 ft | 288 kts | 281° |
| 2026-04-28 15:49 | 61.83116 | -6.07269 | 10443 ft | 277 kts | 281° |
| 2026-04-28 15:49 | 61.83550 | -6.11146 | 10325 ft | 266 kts | 281° |
| 2026-04-28 15:49 | 61.83969 | -6.14933 | 9987 ft | 264 kts | 281° |
| 2026-04-28 15:50 | 61.84384 | -6.18694 | 9647 ft | 262 kts | 281° |
| 2026-04-28 15:50 | 61.84793 | -6.22408 | 9318 ft | 260 kts | 281° |
| 2026-04-28 15:50 | 61.85202 | -6.26119 | 8995 ft | 258 kts | 281° |
| 2026-04-28 15:50 | 61.85606 | -6.29797 | 8682 ft | 255 kts | 281° |
| 2026-04-28 15:51 | 61.85999 | -6.33390 | 8372 ft | 253 kts | 281° |
| 2026-04-28 15:51 | 61.86393 | -6.36997 | 8059 ft | 251 kts | 280° |
| 2026-04-28 15:51 | 61.86780 | -6.40567 | 7753 ft | 248 kts | 280° |
| 2026-04-28 15:51 | 61.87165 | -6.44112 | 7443 ft | 246 kts | 280° |
| 2026-04-28 15:52 | 61.87542 | -6.47595 | 7142 ft | 244 kts | 280° |
| 2026-04-28 15:52 | 61.87919 | -6.51087 | 6845 ft | 242 kts | 280° |
| 2026-04-28 15:52 | 61.88295 | -6.54550 | 6539 ft | 240 kts | 281° |
| 2026-04-28 15:52 | 61.88797 | -6.57869 | 6231 ft | 240 kts | 288° |
| 2026-04-28 15:53 | 61.89511 | -6.61067 | 5928 ft | 241 kts | 294° |
| 2026-04-28 15:53 | 61.90302 | -6.64171 | 5617 ft | 240 kts | 294° |
| 2026-04-28 15:53 | 61.91109 | -6.67307 | 5234 ft | 248 kts | 293° |
| 2026-04-28 15:53 | 61.91939 | -6.70534 | 4778 ft | 251 kts | 293° |
| 2026-04-28 15:54 | 61.92779 | -6.73796 | 4316 ft | 250 kts | 293° |
| 2026-04-28 15:54 | 61.93590 | -6.76953 | 3983 ft | 243 kts | 293° |
| 2026-04-28 15:54 | 61.94400 | -6.80116 | 3946 ft | 243 kts | 293° |
| 2026-04-28 15:54 | 61.95179 | -6.83149 | 3934 ft | 224 kts | 292° |
| 2026-04-28 15:55 | 61.95890 | -6.85905 | 3920 ft | 201 kts | 292° |
| 2026-04-28 15:55 | 61.96518 | -6.88345 | 3904 ft | 181 kts | 291° |
| 2026-04-28 15:55 | 61.97089 | -6.90597 | 3997 ft | 165 kts | 290° |
| 2026-04-28 15:55 | 61.97612 | -6.92636 | 3940 ft | 149 kts | 291° |
| 2026-04-28 15:56 | 61.98116 | -6.94482 | 3953 ft | 143 kts | 291° |
| 2026-04-28 15:56 | 61.98605 | -6.96334 | 3888 ft | 147 kts | 290° |
| 2026-04-28 15:56 | 61.99094 | -6.98248 | 3662 ft | 146 kts | 290° |
| 2026-04-28 15:56 | 61.99565 | -7.00134 | 3441 ft | 146 kts | 289° |
| 2026-04-28 15:57 | 62.00032 | -7.02025 | 3214 ft | 144 kts | 289° |
| 2026-04-28 15:57 | 62.00502 | -7.03940 | 2990 ft | 145 kts | 288° |
| 2026-04-28 15:57 | 62.00965 | -7.05831 | 2762 ft | 145 kts | 288° |
| 2026-04-28 15:57 | 62.01430 | -7.07728 | 2537 ft | 145 kts | 288° |
| 2026-04-28 15:58 | 62.01892 | -7.09613 | 2302 ft | 143 kts | 289° |
| 2026-04-28 15:58 | 62.02350 | -7.11467 | 2075 ft | 142 kts | 289° |
| 2026-04-28 15:58 | 62.02808 | -7.13332 | 1858 ft | 142 kts | 289° |
| 2026-04-28 15:58 | 62.03262 | -7.15176 | 1626 ft | 142 kts | 289° |
| 2026-04-28 15:59 | 62.03723 | -7.17050 | 1386 ft | 143 kts | 290° |
| 2026-04-28 15:59 | 62.04028 | -7.18295 | 1255 ft | 146 kts | 290° |
| 2026-04-28 15:59 | 62.04661 | -7.20859 | 953 ft | 148 kts | 291° |
| 2026-04-28 15:59 | 62.05148 | -7.22824 | 726 ft | 150 kts | 292° |
| 2026-04-28 16:00 | 62.05635 | -7.24783 | 469 ft | 151 kts | 292° |
| 2026-04-28 16:00 | 62.06124 | -7.26781 | 295 ft | 148 kts | 291° |
| 2026-04-28 16:00 | 62.06490 | -7.28252 | 291 ft | 74 kts | 297° |
| 2026-04-28 16:00 | 62.06633 | -7.28826 | 291 ft | 23 kts | 296° |
| 2026-04-28 16:01 | 62.06683 | -7.29029 | 291 ft | 14 kts | 298° |
| 2026-04-28 16:01 | 62.06702 | -7.29171 | 291 ft | 4 kts | 303° |
| 2026-04-28 16:01 | 62.06718 | -7.29152 | 291 ft | 5 kts | 116° |
| 2026-04-28 16:01 | 62.06691 | -7.29067 | 291 ft | 8 kts | 117° |
| 2026-04-28 16:02 | 62.06654 | -7.28922 | 291 ft | 14 kts | 122° |
| 2026-04-28 16:02 | 62.06601 | -7.28709 | 291 ft | 17 kts | 118° |
| 2026-04-28 16:02 | 62.06540 | -7.28463 | 291 ft | 19 kts | 118° |
| 2026-04-28 16:02 | 62.06483 | -7.28223 | 291 ft | 14 kts | 110° |
| 2026-04-28 16:03 | 62.06525 | -7.28107 | 291 ft | 12 kts | 22° |
| 2026-04-28 16:03 | 62.06602 | -7.28067 | 291 ft | 11 kts | 12° |
| 2026-04-28 16:03 | 62.06647 | -7.28015 | 291 ft | 8 kts | 88° |
| 2026-04-28 16:03 | 62.06667 | -7.27942 | 291 ft | 7 kts | 28° |
| 2026-04-28 16:04 | 62.06681 | -7.27925 | 291 ft | 0 kts | 28° |